createdAt,value
2022-07-26T00:01:13.772Z,100.00
2022-07-26T00:06:30.651Z,100.00
2022-07-26T00:11:37.030Z,100.00
2022-07-26T00:16:45.000Z,100.00
2022-07-26T00:22:08.235Z,100.00
2022-07-26T00:27:18.207Z,100.00
2022-07-26T00:32:27.004Z,100.00
2022-07-26T00:37:34.782Z,100.00
2022-07-26T00:42:44.071Z,100.00
2022-07-26T00:47:58.031Z,100.00
2022-07-26T00:53:11.326Z,100.00
2022-07-26T00:58:39.956Z,100.00
2022-07-26T01:09:43.119Z,100.00
2022-07-26T01:15:18.184Z,100.00
2022-07-26T01:20:27.896Z,100.00
2022-07-26T01:25:49.242Z,100.00
2022-07-26T01:36:52.147Z,100.00
2022-07-26T01:42:02.408Z,100.00
2022-07-26T01:47:13.769Z,100.00
2022-07-26T01:52:18.999Z,100.00
2022-07-26T02:03:29.913Z,100.00
2022-07-26T02:08:45.719Z,100.00
2022-07-26T02:14:02.764Z,100.00
2022-07-26T02:19:19.355Z,100.00
2022-07-26T02:24:31.642Z,100.00
2022-07-26T02:29:44.886Z,100.00
2022-07-26T02:46:43.298Z,100.00
2022-07-26T02:52:04.165Z,100.00
2022-07-26T02:57:10.405Z,100.00
2022-07-26T03:02:21.943Z,100.00
2022-07-26T03:07:30.382Z,100.00
2022-07-26T03:12:44.550Z,100.00
2022-07-26T03:18:02.422Z,100.00
2022-07-26T03:23:16.289Z,100.00
2022-07-26T03:28:26.954Z,100.00
2022-07-26T03:33:38.990Z,100.00
2022-07-26T03:38:57.187Z,100.00
2022-07-26T03:44:03.443Z,100.00
2022-07-26T03:49:16.887Z,100.00
2022-07-26T03:54:26.272Z,100.00
2022-07-26T04:00:03.739Z,100.00
2022-07-26T04:05:15.237Z,100.00
2022-07-26T04:10:26.156Z,100.00
2022-07-26T04:15:35.122Z,100.00
2022-07-26T04:20:46.831Z,100.00
2022-07-26T04:25:59.108Z,100.00
2022-07-26T04:31:20.741Z,100.00
2022-07-26T04:36:31.192Z,100.00
2022-07-26T04:41:36.169Z,100.00
2022-07-26T04:46:44.945Z,100.00
2022-07-26T04:51:59.685Z,100.00
2022-07-26T04:57:07.174Z,100.00
2022-07-26T05:02:16.880Z,100.00
2022-07-26T05:07:43.209Z,100.00
2022-07-26T05:12:49.382Z,100.00
2022-07-26T05:18:10.257Z,100.00
2022-07-26T05:23:18.689Z,100.00
2022-07-26T05:28:23.827Z,100.00
2022-07-26T05:33:28.669Z,100.00
2022-07-26T05:38:36.525Z,100.00
2022-07-26T05:43:42.157Z,100.00
2022-07-26T05:49:02.933Z,100.00
2022-07-26T05:54:23.082Z,100.00
2022-07-26T05:59:28.019Z,100.00
2022-07-26T06:04:33.174Z,100.00
2022-07-26T06:09:40.772Z,100.00
2022-07-26T06:14:45.693Z,100.00
2022-07-26T06:19:50.567Z,100.00
2022-07-26T06:24:58.158Z,100.00
2022-07-26T06:30:03.008Z,100.00
2022-07-26T06:35:08.828Z,100.00
2022-07-26T06:40:16.491Z,100.00
2022-07-26T06:45:21.673Z,100.00
2022-07-26T06:50:26.836Z,100.00
2022-07-26T06:55:34.236Z,100.00
2022-07-26T07:00:39.468Z,100.00
2022-07-26T07:05:49.596Z,100.00
2022-07-26T07:10:57.566Z,100.00
2022-07-26T07:16:03.302Z,100.00
2022-07-26T07:21:09.091Z,100.00
2022-07-26T07:26:16.700Z,100.00
2022-07-26T07:31:30.067Z,100.00
2022-07-26T07:36:37.910Z,100.00
2022-07-26T07:41:50.690Z,100.00
2022-07-26T07:46:55.657Z,100.00
2022-07-26T07:52:00.793Z,100.00
2022-07-26T07:57:08.275Z,100.00
2022-07-26T08:02:15.214Z,100.00
2022-07-26T08:07:20.160Z,100.00
2022-07-26T08:12:27.741Z,100.00
2022-07-26T08:17:33.883Z,100.00
2022-07-26T08:22:40.073Z,100.00
2022-07-26T08:28:00.528Z,100.00
2022-07-26T08:33:08.295Z,100.00
2022-07-26T08:38:13.172Z,100.00
2022-07-26T08:43:20.718Z,100.00
2022-07-26T08:48:25.596Z,97.17
2022-07-26T08:53:32.674Z,100.00
2022-07-26T08:58:41.030Z,97.92
2022-07-26T09:03:46.937Z,94.45
2022-07-26T09:08:54.188Z,92.03
2022-07-26T09:14:04.246Z,84.72
2022-07-26T09:19:21.547Z,89.09
2022-07-26T09:24:38.056Z,78.24
2022-07-26T09:30:02.940Z,81.43
2022-07-26T09:35:45.956Z,76.34
2022-07-26T09:40:46.765Z,81.25
2022-07-26T09:46:07.927Z,71.87
2022-07-26T09:51:17.049Z,65.75
2022-07-26T09:56:27.440Z,68.65
2022-07-26T10:01:34.579Z,67.18
2022-07-26T10:06:43.651Z,67.21
2022-07-26T10:11:56.107Z,64.66
2022-07-26T10:17:01.389Z,65.86
2022-07-26T10:22:30.802Z,59.42
2022-07-26T10:27:45.768Z,62.97
2022-07-26T10:33:02.035Z,57.25
2022-07-26T10:38:11.808Z,59.60
2022-07-26T10:48:59.496Z,57.59
2022-07-26T10:54:10.665Z,56.67
2022-07-26T10:59:27.941Z,57.40
2022-07-26T11:04:40.816Z,57.35
2022-07-26T11:09:48.339Z,58.09
2022-07-26T11:14:54.362Z,54.82
2022-07-26T11:20:00.816Z,56.91
2022-07-26T11:25:09.398Z,56.47
2022-07-26T11:30:15.949Z,58.53
2022-07-26T11:35:20.955Z,54.73
2022-07-26T11:40:49.229Z,55.43
2022-07-26T11:45:55.271Z,56.31
2022-07-26T11:51:12.094Z,56.06
2022-07-26T11:56:24.125Z,56.60
2022-07-26T12:01:30.299Z,58.96
2022-07-26T12:06:41.774Z,59.35
2022-07-26T12:11:49.373Z,61.10
2022-07-26T12:16:54.344Z,59.99
2022-07-26T12:22:02.069Z,59.87
2022-07-26T12:27:19.758Z,59.58
2022-07-26T12:32:26.222Z,60.55
2022-07-26T12:37:40.053Z,61.72
2022-07-26T12:43:01.163Z,63.23
2022-07-26T12:48:12.096Z,61.03
2022-07-26T12:53:16.952Z,60.22
2022-07-26T12:58:24.393Z,58.59
2022-07-26T13:03:29.215Z,59.66
2022-07-26T13:08:34.079Z,61.04
2022-07-26T13:13:42.061Z,62.10
2022-07-26T13:18:46.934Z,60.58
2022-07-26T13:23:51.777Z,60.69
2022-07-26T13:29:01.295Z,64.33
2022-07-26T13:34:06.219Z,64.44
2022-07-26T13:39:11.194Z,65.25
2022-07-26T13:44:19.015Z,63.18
2022-07-26T13:49:23.863Z,64.60
2022-07-26T13:54:30.989Z,67.82
2022-07-26T13:59:38.512Z,69.10
2022-07-26T14:04:43.392Z,68.92
2022-07-26T14:09:48.238Z,66.72
2022-07-26T14:14:55.682Z,68.93
2022-07-26T14:20:00.591Z,70.52
2022-07-26T14:25:06.152Z,68.92
2022-07-26T14:30:15.045Z,67.28
2022-07-26T14:35:20.665Z,68.36
2022-07-26T14:40:25.616Z,68.22
2022-07-26T14:45:34.571Z,66.44
2022-07-26T14:51:07.159Z,63.57
2022-07-26T14:56:04.380Z,62.44
2022-07-26T15:01:11.924Z,58.16
2022-07-26T15:06:16.939Z,59.66
2022-07-26T15:11:21.768Z,61.22
2022-07-26T15:16:29.315Z,58.68
2022-07-26T15:21:34.441Z,57.05
2022-07-26T15:26:39.264Z,57.62
2022-07-26T15:31:46.832Z,56.86
2022-07-26T15:36:51.988Z,59.66
2022-07-26T15:41:56.941Z,61.25
2022-07-26T15:47:06.339Z,60.66
2022-07-26T15:52:13.693Z,61.70
2022-07-26T15:57:19.386Z,64.60
2022-07-26T16:02:27.628Z,65.89
2022-07-26T16:07:32.700Z,66.77
2022-07-26T16:12:37.582Z,67.28
2022-07-26T16:17:45.152Z,68.05
2022-07-26T16:22:50.610Z,64.49
2022-07-26T16:27:55.539Z,65.08
2022-07-26T16:33:03.152Z,63.94
2022-07-26T16:38:08.146Z,65.04
2022-07-26T16:43:13.215Z,66.29
2022-07-26T16:48:20.673Z,67.39
2022-07-26T16:53:25.597Z,65.47
2022-07-26T16:58:30.512Z,62.18
2022-07-26T17:03:38.101Z,89.01
2022-07-26T17:08:43.488Z,94.52
2022-07-26T17:13:49.011Z,96.67
2022-07-26T17:18:57.137Z,100.00
2022-07-26T17:24:05.660Z,100.00
2022-07-26T17:29:12.293Z,100.00
2022-07-26T17:34:20.417Z,100.00
2022-07-26T17:39:25.375Z,100.00
2022-07-26T17:44:50.309Z,100.00
2022-07-26T17:50:09.012Z,100.00
2022-07-26T17:55:21.295Z,100.00
2022-07-26T18:00:28.814Z,100.00
2022-07-26T18:05:41.088Z,100.00
2022-07-26T18:10:50.828Z,100.00
2022-07-26T18:15:56.730Z,100.00
2022-07-26T18:21:04.584Z,100.00
2022-07-26T18:26:09.586Z,100.00
2022-07-26T18:31:14.944Z,100.00
2022-07-26T18:36:23.081Z,100.00
2022-07-26T18:41:28.869Z,100.00
2022-07-26T18:46:34.843Z,100.00
2022-07-26T18:51:43.285Z,100.00
2022-07-26T18:56:48.494Z,100.00
2022-07-26T19:01:55.881Z,100.00
2022-07-26T19:07:03.708Z,100.00
2022-07-26T19:12:09.492Z,100.00
2022-07-26T19:17:14.592Z,100.00
2022-07-26T19:22:22.553Z,100.00
2022-07-26T19:27:28.291Z,100.00
2022-07-26T19:32:36.186Z,100.00
2022-07-26T19:37:44.053Z,100.00
2022-07-26T19:42:49.299Z,100.00
2022-07-26T19:47:58.603Z,100.00
2022-07-26T19:53:06.530Z,100.00
2022-07-26T19:58:11.731Z,100.00
2022-07-26T20:03:16.954Z,100.00
2022-07-26T20:08:24.932Z,100.00
2022-07-26T20:13:30.174Z,100.00
2022-07-26T20:18:35.086Z,100.00
2022-07-26T20:23:43.183Z,100.00
2022-07-26T20:28:49.361Z,100.00
2022-07-26T20:33:55.682Z,100.00
2022-07-26T20:39:03.937Z,100.00
2022-07-26T20:44:08.789Z,100.00
2022-07-26T20:49:14.890Z,100.00
2022-07-26T20:54:23.725Z,100.00
2022-07-26T20:59:28.983Z,100.00
2022-07-26T21:04:34.213Z,100.00
2022-07-26T21:09:42.166Z,100.00
2022-07-26T21:14:47.399Z,100.00
2022-07-26T21:19:52.547Z,100.00
2022-07-26T21:25:15.783Z,100.00
2022-07-26T21:30:21.110Z,100.00
2022-07-26T21:35:26.490Z,100.00
2022-07-26T21:40:34.104Z,100.00
2022-07-26T21:45:40.380Z,100.00
2022-07-26T21:50:45.622Z,100.00
2022-07-26T21:55:53.225Z,100.00
2022-07-26T22:01:06.579Z,100.00
2022-07-26T22:06:13.741Z,100.00
2022-07-26T22:11:23.318Z,100.00
2022-07-26T22:16:28.698Z,100.00
2022-07-26T22:21:33.720Z,100.00
2022-07-26T22:26:42.336Z,100.00
2022-07-26T22:31:47.209Z,100.00
2022-07-26T22:36:52.258Z,100.00
2022-07-26T22:42:14.935Z,100.00
2022-07-26T22:47:20.882Z,100.00
2022-07-26T22:52:26.672Z,100.00
2022-07-26T22:57:34.510Z,100.00
2022-07-26T23:02:40.042Z,100.00
2022-07-26T23:07:47.852Z,100.00
2022-07-26T23:12:58.038Z,100.00
2022-07-26T23:18:02.872Z,100.00
2022-07-26T23:23:07.886Z,100.00
2022-07-26T23:28:24.895Z,100.00
2022-07-26T23:33:51.893Z,100.00
2022-07-26T23:39:00.706Z,100.00
2022-07-26T23:44:08.900Z,100.00
2022-07-26T23:49:14.240Z,100.00
2022-07-26T23:54:19.920Z,100.00
2022-07-26T23:59:27.437Z,100.00
